createdAt,value
2023-02-24T00:00:32.056Z,99536.73
2023-02-24T00:03:13.656Z,99534.42
2023-02-24T00:05:49.959Z,99536.20
2023-02-24T00:08:18.378Z,99532.08
2023-02-24T00:10:47.835Z,99527.85
2023-02-24T00:13:22.327Z,99518.42
2023-02-24T00:16:02.861Z,99521.11
2023-02-24T00:18:32.722Z,99515.56
2023-02-24T00:21:08.355Z,99513.48
2023-02-24T00:23:38.349Z,99511.38
2023-02-24T00:26:10.345Z,99507.07
2023-02-24T00:28:39.114Z,99501.30
2023-02-24T00:31:14.475Z,99499.34
2023-02-24T00:33:45.801Z,99500.54
2023-02-24T00:36:23.995Z,99495.16
2023-02-24T00:38:56.273Z,99493.17
2023-02-24T00:41:31.494Z,99490.95
2023-02-24T00:44:07.412Z,99487.59
2023-02-24T00:46:42.546Z,99483.02
2023-02-24T00:49:17.649Z,99481.42
2023-02-24T00:51:49.318Z,99478.70
2023-02-24T00:54:17.682Z,99474.08
2023-02-24T00:56:48.573Z,99477.11
2023-02-24T00:59:23.037Z,99474.10
2023-02-24T01:01:52.328Z,99472.70
2023-02-24T01:04:21.922Z,99471.02
2023-02-24T01:07:00.132Z,99465.45
2023-02-24T01:09:32.139Z,99464.48
2023-02-24T01:12:19.213Z,99462.15
2023-02-24T01:14:51.297Z,99453.68
2023-02-24T01:17:21.766Z,99447.34
2023-02-24T01:19:50.455Z,99445.77
2023-02-24T01:22:21.351Z,99443.08
2023-02-24T01:24:49.815Z,99441.14
2023-02-24T01:27:19.389Z,99432.63
2023-02-24T01:29:48.941Z,99431.29
2023-02-24T01:32:21.494Z,99427.11
2023-02-24T01:34:53.344Z,99422.88
2023-02-24T01:37:21.976Z,99424.30
2023-02-24T01:39:50.740Z,99422.58
2023-02-24T01:42:22.312Z,99419.36
2023-02-24T01:44:51.973Z,99417.69
2023-02-24T01:47:21.484Z,99414.98
2023-02-24T01:49:54.764Z,99409.88
2023-02-24T01:52:37.810Z,99405.98
2023-02-24T01:55:24.570Z,99407.49
2023-02-24T01:57:54.109Z,99402.55
2023-02-24T02:00:38.334Z,99400.98
2023-02-24T02:03:25.593Z,99401.24
2023-02-24T02:06:01.334Z,99395.06
2023-02-24T02:08:30.651Z,99390.99
2023-02-24T02:11:06.419Z,99382.70
2023-02-24T02:13:38.071Z,99382.02
2023-02-24T02:16:21.065Z,99379.64
2023-02-24T02:19:36.202Z,99380.41
2023-02-24T02:22:23.549Z,99376.39
2023-02-24T02:25:01.582Z,99373.26
2023-02-24T02:28:04.334Z,99368.96
2023-02-24T02:31:04.168Z,99369.95
2023-02-24T02:34:02.961Z,99366.27
2023-02-24T02:37:14.920Z,99367.98
2023-02-24T02:40:37.669Z,99365.26
2023-02-24T02:43:25.916Z,99363.61
2023-02-24T02:46:14.919Z,99361.14
2023-02-24T02:48:58.195Z,99362.46
2023-02-24T02:51:38.862Z,99357.00
2023-02-24T02:54:22.465Z,99355.64
2023-02-24T02:56:59.602Z,99350.86
2023-02-24T02:59:31.870Z,99349.71
2023-02-24T03:02:11.654Z,99342.83
2023-02-24T03:04:46.718Z,99344.90
2023-02-24T03:07:17.857Z,99342.90
2023-02-24T03:09:56.307Z,99334.46
2023-02-24T03:12:30.622Z,99330.83
2023-02-24T03:15:04.586Z,99333.22
2023-02-24T03:17:40.893Z,99335.14
2023-02-24T03:20:29.352Z,99332.99
2023-02-24T03:23:25.733Z,99330.73
2023-02-24T03:26:06.143Z,99331.28
2023-02-24T03:28:48.820Z,99327.56
2023-02-24T03:31:27.764Z,99326.12
2023-02-24T03:34:15.889Z,99323.64
2023-02-24T03:36:44.551Z,99324.02
2023-02-24T03:39:13.273Z,99323.91
2023-02-24T03:42:01.267Z,99318.52
2023-02-24T03:44:30.505Z,99314.29
2023-02-24T03:46:58.904Z,99308.68
2023-02-24T03:49:28.216Z,99305.30
2023-02-24T03:52:29.137Z,99303.97
2023-02-24T03:55:28.499Z,99299.86
2023-02-24T03:58:43.034Z,99296.43
2023-02-24T04:01:42.082Z,99295.80
2023-02-24T04:04:27.428Z,99294.14
2023-02-24T04:07:12.659Z,99291.89
2023-02-24T04:09:57.185Z,99289.11
2023-02-24T04:12:52.329Z,99284.61
2023-02-24T04:15:32.398Z,99280.79
2023-02-24T04:18:08.041Z,99277.16
2023-02-24T04:20:37.226Z,99274.20
2023-02-24T04:23:17.001Z,99272.38
2023-02-24T04:25:49.462Z,99270.17
2023-02-24T04:28:21.242Z,99266.62
2023-02-24T04:31:05.809Z,99264.87
2023-02-24T04:33:34.363Z,99264.78
2023-02-24T04:36:02.853Z,99255.58
2023-02-24T04:38:31.500Z,99258.35
2023-02-24T04:40:59.791Z,99252.77
2023-02-24T04:43:29.458Z,99250.73
2023-02-24T04:45:57.859Z,99247.58
2023-02-24T04:48:26.201Z,99245.83
2023-02-24T04:50:55.279Z,99245.77
2023-02-24T04:53:27.255Z,99245.44
2023-02-24T04:55:56.297Z,99241.23
2023-02-24T04:58:29.663Z,99241.80
2023-02-24T05:00:57.984Z,99241.11
2023-02-24T05:03:30.078Z,99237.28
2023-02-24T05:06:00.327Z,99234.83
2023-02-24T05:08:30.933Z,99233.94
2023-02-24T05:11:03.902Z,99227.00
2023-02-24T05:13:33.830Z,99224.48
2023-02-24T05:16:10.016Z,99221.25
2023-02-24T05:18:38.792Z,99222.14
2023-02-24T05:21:32.862Z,99218.42
2023-02-24T05:24:06.533Z,99217.17
2023-02-24T05:26:38.087Z,99215.44
2023-02-24T05:29:07.288Z,99214.73
2023-02-24T05:31:37.092Z,99213.59
2023-02-24T05:34:08.136Z,99214.17
2023-02-24T05:36:40.615Z,99215.95
2023-02-24T05:39:12.280Z,99215.34
2023-02-24T05:41:42.981Z,99218.08
2023-02-24T05:44:16.096Z,99216.59
2023-02-24T05:46:46.635Z,99213.81
2023-02-24T05:49:26.912Z,99210.02
2023-02-24T05:52:00.097Z,99208.81
2023-02-24T05:54:44.130Z,99209.34
2023-02-24T05:57:17.342Z,99208.32
2023-02-24T05:59:46.042Z,99207.16
2023-02-24T06:02:18.013Z,99205.27
2023-02-24T06:04:53.905Z,99206.36
2023-02-24T06:07:34.554Z,99204.45
2023-02-24T06:10:07.053Z,99212.04
2023-02-24T06:12:36.088Z,99208.27
2023-02-24T06:15:07.746Z,99205.96
2023-02-24T06:17:36.446Z,99208.05
2023-02-24T06:20:15.707Z,99203.73
2023-02-24T06:22:44.303Z,99204.04
2023-02-24T06:25:12.712Z,99204.70
2023-02-24T06:27:41.095Z,99202.64
2023-02-24T06:30:10.731Z,99202.71
2023-02-24T06:32:39.562Z,99204.77
2023-02-24T06:35:09.238Z,99204.55
2023-02-24T06:37:39.469Z,99205.52
2023-02-24T06:40:17.809Z,99209.14
2023-02-24T06:42:54.045Z,99209.34
2023-02-24T06:45:24.422Z,99213.33
2023-02-24T06:47:53.321Z,99210.66
2023-02-24T06:50:21.900Z,99216.52
2023-02-24T06:52:50.643Z,99219.63
2023-02-24T06:55:28.384Z,99216.56
2023-02-24T06:58:04.296Z,99214.27
2023-02-24T07:00:40.785Z,99213.64
2023-02-24T07:03:16.242Z,99213.00
2023-02-24T07:05:54.195Z,99208.08
2023-02-24T07:08:27.200Z,99210.66
2023-02-24T07:10:58.170Z,99212.32
2023-02-24T07:13:30.858Z,99217.16
2023-02-24T07:16:07.435Z,99215.35
2023-02-24T07:18:41.757Z,99214.90
2023-02-24T07:21:11.777Z,99213.39
2023-02-24T07:23:41.841Z,99215.48
2023-02-24T07:26:15.714Z,99216.90
2023-02-24T07:28:47.008Z,99211.48
2023-02-24T07:31:19.666Z,99211.66
2023-02-24T07:33:48.793Z,99209.35
2023-02-24T07:36:23.095Z,99207.22
2023-02-24T07:38:53.988Z,99206.20
2023-02-24T07:41:26.241Z,99203.23
2023-02-24T07:43:55.445Z,99196.99
2023-02-24T07:46:28.115Z,99199.25
2023-02-24T07:48:59.325Z,99192.30
2023-02-24T07:51:29.442Z,99189.22
2023-02-24T07:54:00.494Z,99194.58
2023-02-24T07:56:31.123Z,99195.98
2023-02-24T07:59:07.918Z,99191.89
2023-02-24T08:01:40.607Z,99188.95
2023-02-24T08:04:12.761Z,99186.66
2023-02-24T08:06:48.127Z,99187.05
2023-02-24T08:09:21.038Z,99187.54
2023-02-24T08:11:55.386Z,99183.95
2023-02-24T08:14:35.465Z,99178.67
2023-02-24T08:17:05.521Z,99177.09
2023-02-24T08:19:39.830Z,99175.66
2023-02-24T08:22:20.675Z,99172.71
2023-02-24T08:25:05.869Z,99168.23
2023-02-24T08:27:43.064Z,99163.17
2023-02-24T08:30:23.556Z,99164.27
2023-02-24T08:33:00.062Z,99165.07
2023-02-24T08:35:37.545Z,99162.40
2023-02-24T08:38:14.512Z,99166.28
2023-02-24T08:40:50.932Z,99164.36
2023-02-24T08:43:40.958Z,99159.16
2023-02-24T08:46:18.621Z,99157.41
2023-02-24T08:48:55.463Z,99159.00
2023-02-24T08:51:34.947Z,99161.00
2023-02-24T08:54:15.379Z,99159.89
2023-02-24T08:56:55.966Z,99157.46
2023-02-24T08:59:38.016Z,99153.73
2023-02-24T09:02:23.067Z,99149.06
2023-02-24T09:05:03.785Z,99145.61
2023-02-24T09:07:40.674Z,99140.35
2023-02-24T09:10:18.206Z,99135.24
2023-02-24T09:12:49.117Z,99136.09
2023-02-24T09:15:17.856Z,99140.65
2023-02-24T09:17:46.334Z,99139.40
2023-02-24T09:20:39.132Z,99136.30
2023-02-24T09:23:08.668Z,99131.63
2023-02-24T09:25:44.747Z,99125.25
2023-02-24T09:28:19.581Z,99127.03
2023-02-24T09:31:04.855Z,99128.21
2023-02-24T09:33:41.260Z,99125.92
2023-02-24T09:36:28.387Z,99120.40
2023-02-24T09:38:59.629Z,99119.10
2023-02-24T09:42:07.608Z,99119.95
2023-02-24T09:44:39.361Z,99109.38
2023-02-24T09:47:51.305Z,99105.02
2023-02-24T09:50:40.269Z,99101.35
2023-02-24T09:53:19.999Z,99095.67
2023-02-24T09:56:05.346Z,99089.91
2023-02-24T09:58:47.980Z,99083.61
2023-02-24T10:01:50.753Z,99086.14
2023-02-24T10:04:49.271Z,99080.92
2023-02-24T10:07:38.426Z,99083.95
2023-02-24T10:10:36.358Z,99080.77
2023-02-24T10:13:30.397Z,99077.46
2023-02-24T10:16:06.981Z,99077.55
2023-02-24T10:19:17.540Z,99077.17
2023-02-24T10:22:02.500Z,99067.55
2023-02-24T10:24:47.659Z,99055.29
2023-02-24T10:27:27.221Z,99053.31
2023-02-24T10:30:28.041Z,99049.21
2023-02-24T10:33:02.596Z,99053.80
2023-02-24T10:35:34.163Z,99049.75
2023-02-24T10:38:07.135Z,99047.14
2023-02-24T10:40:57.028Z,99042.63
2023-02-24T10:43:30.552Z,99033.75
2023-02-24T10:46:17.234Z,99025.77
2023-02-24T10:49:00.652Z,99028.30
2023-02-24T10:51:42.384Z,99028.45
2023-02-24T10:54:48.373Z,99027.70
2023-02-24T10:57:37.365Z,99019.75
2023-02-24T11:00:31.133Z,99018.48
2023-02-24T11:03:10.650Z,99013.34
2023-02-24T11:06:04.697Z,99008.80
2023-02-24T11:08:39.740Z,99011.14
2023-02-24T11:11:26.099Z,99007.12
2023-02-24T11:14:30.384Z,98995.75
2023-02-24T11:17:17.520Z,98988.02
2023-02-24T11:20:01.684Z,98974.09
2023-02-24T11:22:39.538Z,98963.23
2023-02-24T11:25:39.624Z,98953.34
2023-02-24T11:28:55.807Z,98947.96
2023-02-24T11:31:53.607Z,98941.16
2023-02-24T11:34:39.227Z,98931.60
2023-02-24T11:37:59.081Z,98928.22
2023-02-24T11:40:36.586Z,98928.11
2023-02-24T11:43:14.140Z,98928.77
2023-02-24T11:45:53.473Z,98928.48
2023-02-24T11:48:26.730Z,98926.57
2023-02-24T11:51:20.745Z,98919.92
2023-02-24T11:53:58.322Z,98917.69
2023-02-24T11:56:44.213Z,98912.60
2023-02-24T11:59:38.342Z,98908.29
2023-02-24T12:02:35.756Z,98903.64
2023-02-24T12:05:17.000Z,98904.83
2023-02-24T12:07:59.229Z,98899.34
2023-02-24T12:10:32.283Z,98895.67
2023-02-24T12:13:19.384Z,98886.92
2023-02-24T12:16:03.153Z,98885.69
2023-02-24T12:18:43.617Z,98885.88
2023-02-24T12:21:32.314Z,98881.75
2023-02-24T12:24:02.245Z,98874.70
2023-02-24T12:26:48.228Z,98866.74
2023-02-24T12:29:49.906Z,98863.25
2023-02-24T12:32:47.321Z,98852.98
2023-02-24T12:35:33.006Z,98850.31
2023-02-24T12:38:34.705Z,98853.42
2023-02-24T12:41:14.755Z,98848.22
2023-02-24T12:43:55.482Z,98842.20
2023-02-24T12:46:38.448Z,98837.69
2023-02-24T12:49:42.831Z,98834.30
2023-02-24T12:52:48.109Z,98822.34
2023-02-24T12:55:52.111Z,98811.21
2023-02-24T12:58:26.637Z,98813.38
2023-02-24T13:01:09.106Z,98807.42
2023-02-24T13:04:06.942Z,98805.45
2023-02-24T13:07:01.205Z,98805.61
2023-02-24T13:09:51.329Z,98797.32
2023-02-24T13:12:49.050Z,98792.09
2023-02-24T13:15:27.325Z,98786.52
2023-02-24T13:17:58.494Z,98784.73
2023-02-24T13:20:38.731Z,98773.70
2023-02-24T13:23:22.004Z,98768.73
2023-02-24T13:25:54.041Z,98761.19
2023-02-24T13:28:36.413Z,98758.23
2023-02-24T13:31:13.592Z,98754.69
2023-02-24T13:33:44.828Z,98750.02
2023-02-24T13:36:17.037Z,98745.06
2023-02-24T13:38:49.442Z,98741.60
2023-02-24T13:41:40.926Z,98743.52
2023-02-24T13:44:18.809Z,98737.88
2023-02-24T13:47:14.610Z,98726.89
2023-02-24T13:50:39.296Z,98719.54
2023-02-24T13:53:23.849Z,98715.48
2023-02-24T13:56:16.538Z,98710.31
2023-02-24T13:59:11.297Z,98703.17
2023-02-24T14:01:58.076Z,98697.70
2023-02-24T14:04:36.192Z,98693.92
2023-02-24T14:07:11.708Z,98693.02
2023-02-24T14:09:46.722Z,98688.14
2023-02-24T14:12:28.943Z,98687.75
2023-02-24T14:14:58.029Z,98681.61
2023-02-24T14:17:35.880Z,98680.06
2023-02-24T14:20:05.206Z,98679.83
2023-02-24T14:22:34.742Z,98681.96
2023-02-24T14:25:09.313Z,98679.45
2023-02-24T14:27:39.021Z,98671.98
2023-02-24T14:30:18.975Z,98673.20
2023-02-24T14:32:48.330Z,98668.55
2023-02-24T14:35:49.430Z,98657.88
2023-02-24T14:38:39.331Z,98655.81
2023-02-24T14:41:24.693Z,98657.38
2023-02-24T14:43:53.899Z,98658.17
2023-02-24T14:46:24.019Z,98656.58
2023-02-24T14:48:56.211Z,98660.10
2023-02-24T14:51:35.510Z,98653.95
2023-02-24T14:54:08.121Z,98648.88
2023-02-24T14:56:37.067Z,98649.58
2023-02-24T14:59:33.755Z,98643.83
2023-02-24T15:02:05.534Z,98642.27
2023-02-24T15:04:39.422Z,98634.40
2023-02-24T15:07:17.776Z,98629.69
2023-02-24T15:09:48.351Z,98625.20
2023-02-24T15:12:32.184Z,98626.70
2023-02-24T15:15:13.574Z,98626.31
2023-02-24T15:17:42.019Z,98620.43
2023-02-24T15:20:35.406Z,98611.52
2023-02-24T15:23:04.408Z,98605.60
2023-02-24T15:25:46.258Z,98606.20
2023-02-24T15:28:34.200Z,98608.64
2023-02-24T15:31:16.170Z,98606.54
2023-02-24T15:33:58.119Z,98607.15
2023-02-24T15:36:36.749Z,98609.08
2023-02-24T15:39:17.065Z,98612.23
2023-02-24T15:41:48.304Z,98609.13
2023-02-24T15:44:31.842Z,98593.26
2023-02-24T15:47:21.418Z,98593.75
2023-02-24T15:49:50.005Z,98587.80
2023-02-24T15:52:24.358Z,98588.67
2023-02-24T15:54:54.347Z,98582.39
2023-02-24T15:57:23.534Z,98577.98
2023-02-24T15:59:52.272Z,98581.39
2023-02-24T16:02:23.625Z,98584.42
2023-02-24T16:04:52.430Z,98580.84
2023-02-24T16:07:26.749Z,98578.73
2023-02-24T16:09:57.747Z,98571.23
2023-02-24T16:12:34.146Z,98560.66
2023-02-24T16:15:06.820Z,98551.68
2023-02-24T16:17:41.436Z,98552.99
2023-02-24T16:20:18.689Z,98551.11
2023-02-24T16:22:47.158Z,98547.86
2023-02-24T16:25:17.012Z,98547.15
2023-02-24T16:27:45.564Z,98544.90
2023-02-24T16:30:22.127Z,98539.24
2023-02-24T16:32:51.576Z,98537.34
2023-02-24T16:35:20.271Z,98538.87
2023-02-24T16:37:49.083Z,98537.98
2023-02-24T16:40:30.668Z,98534.44
2023-02-24T16:42:59.256Z,98524.19
2023-02-24T16:45:30.704Z,98523.73
2023-02-24T16:48:02.560Z,98522.59
2023-02-24T16:50:40.901Z,98520.08
2023-02-24T16:53:18.907Z,98519.33
2023-02-24T16:55:47.618Z,98518.79
2023-02-24T16:58:16.357Z,98525.39
2023-02-24T17:00:49.842Z,98520.92
2023-02-24T17:03:25.109Z,98517.95
2023-02-24T17:05:54.595Z,98522.67
2023-02-24T17:08:23.611Z,98516.70
2023-02-24T17:10:52.682Z,98526.38
2023-02-24T17:13:22.087Z,98526.60
2023-02-24T17:15:57.309Z,98529.75
2023-02-24T17:18:26.632Z,98527.40
2023-02-24T17:20:55.059Z,98526.58
2023-02-24T17:23:23.881Z,98529.72
2023-02-24T17:26:00.204Z,98528.04
2023-02-24T17:28:28.741Z,98521.35
2023-02-24T17:30:57.572Z,98520.48
2023-02-24T17:33:25.991Z,98514.63
2023-02-24T17:35:54.341Z,98510.65
2023-02-24T17:38:24.174Z,98508.86
2023-02-24T17:40:52.760Z,98511.54
2023-02-24T17:43:21.163Z,98514.30
2023-02-24T17:45:51.698Z,98521.06
2023-02-24T17:48:21.551Z,98527.60
2023-02-24T17:50:50.004Z,98532.77
2023-02-24T17:53:18.295Z,98535.91
2023-02-24T17:56:01.840Z,98520.74
2023-02-24T17:58:32.333Z,98503.41
2023-02-24T18:01:05.690Z,98491.93
2023-02-24T18:03:36.135Z,98494.48
2023-02-24T18:06:10.215Z,98486.90
2023-02-24T18:08:39.745Z,98484.38
2023-02-24T18:11:16.099Z,98475.06
2023-02-24T18:13:45.178Z,98469.88
2023-02-24T18:16:15.343Z,98474.34
2023-02-24T18:18:43.887Z,98473.73
2023-02-24T18:21:12.572Z,98468.52
2023-02-24T18:23:41.034Z,98469.73
2023-02-24T18:26:12.197Z,98461.30
2023-02-24T18:28:40.981Z,98459.80
2023-02-24T18:31:12.716Z,98457.17
2023-02-24T18:33:41.770Z,98437.50
2023-02-24T18:36:11.180Z,98432.16
2023-02-24T18:38:40.024Z,98433.45
2023-02-24T18:41:15.725Z,98435.12
2023-02-24T18:43:47.986Z,98430.38
2023-02-24T18:46:18.578Z,98425.60
2023-02-24T18:48:48.133Z,98425.79
2023-02-24T18:51:22.026Z,98426.73
2023-02-24T18:53:52.814Z,98426.87
2023-02-24T18:56:25.699Z,98429.09
2023-02-24T18:58:56.926Z,98426.30
2023-02-24T19:01:41.299Z,98424.67
2023-02-24T19:04:09.732Z,98426.57
2023-02-24T19:06:38.083Z,98417.72
2023-02-24T19:09:10.492Z,98418.16
2023-02-24T19:11:40.873Z,98404.96
2023-02-24T19:14:12.172Z,98391.55
2023-02-24T19:16:41.116Z,98403.16
2023-02-24T19:19:14.514Z,98402.98
2023-02-24T19:21:45.552Z,98402.98
2023-02-24T19:24:14.554Z,98399.08
2023-02-24T19:26:44.483Z,98403.30
2023-02-24T19:29:13.794Z,98398.09
2023-02-24T19:31:42.693Z,98396.61
2023-02-24T19:34:15.270Z,98391.45
2023-02-24T19:36:43.668Z,98385.99
2023-02-24T19:39:15.312Z,98387.91
2023-02-24T19:41:44.356Z,98386.11
2023-02-24T19:44:14.164Z,98382.63
2023-02-24T19:46:43.135Z,98375.04
2023-02-24T19:49:11.522Z,98370.76
2023-02-24T19:51:40.151Z,98365.88
2023-02-24T19:54:12.356Z,98358.56
2023-02-24T19:56:40.769Z,98356.16
2023-02-24T19:59:10.786Z,98353.55
2023-02-24T20:01:39.314Z,98351.75
2023-02-24T20:04:08.378Z,98348.33
2023-02-24T20:06:43.472Z,98347.39
2023-02-24T20:09:22.226Z,98345.37
2023-02-24T20:11:51.449Z,98344.21
2023-02-24T20:14:20.647Z,98338.41
2023-02-24T20:16:49.152Z,98336.46
2023-02-24T20:19:18.135Z,98330.70
2023-02-24T20:21:47.596Z,98330.35
2023-02-24T20:24:17.994Z,98323.21
2023-02-24T20:26:49.668Z,98323.60
2023-02-24T20:29:21.106Z,98317.25
2023-02-24T20:31:49.892Z,98315.42
2023-02-24T20:34:18.472Z,98317.02
2023-02-24T20:36:46.880Z,98311.02
2023-02-24T20:39:15.557Z,98307.63
2023-02-24T20:41:44.185Z,98302.14
2023-02-24T20:44:12.902Z,98295.45
2023-02-24T20:46:41.493Z,98288.13
2023-02-24T20:49:14.686Z,98290.81
2023-02-24T20:51:44.014Z,98286.92
2023-02-24T20:54:13.725Z,98284.60
2023-02-24T20:56:45.470Z,98283.45
2023-02-24T20:59:21.979Z,98276.10
2023-02-24T21:01:51.065Z,98275.27
2023-02-24T21:04:21.662Z,98279.08
2023-02-24T21:06:51.979Z,98279.32
2023-02-24T21:09:20.441Z,98276.52
2023-02-24T21:11:48.847Z,98279.76
2023-02-24T21:14:17.645Z,98270.21
2023-02-24T21:16:46.306Z,98261.20
2023-02-24T21:19:15.067Z,98254.07
2023-02-24T21:21:43.445Z,98251.25
2023-02-24T21:24:12.087Z,98251.52
2023-02-24T21:26:40.531Z,98247.71
2023-02-24T21:29:08.890Z,98244.57
2023-02-24T21:31:37.468Z,98239.95
2023-02-24T21:34:06.323Z,98234.64
2023-02-24T21:36:36.083Z,98235.19
2023-02-24T21:39:06.361Z,98231.44
2023-02-24T21:41:37.510Z,98232.17
2023-02-24T21:44:06.019Z,98233.35
2023-02-24T21:46:34.515Z,98231.95
2023-02-24T21:49:03.280Z,98232.62
2023-02-24T21:51:31.673Z,98230.04
2023-02-24T21:54:00.865Z,98229.52
2023-02-24T21:56:30.448Z,98224.05
2023-02-24T21:59:03.002Z,98217.64
2023-02-24T22:01:50.022Z,98218.34
2023-02-24T22:04:19.225Z,98216.74
2023-02-24T22:06:50.340Z,98221.09
2023-02-24T22:09:19.855Z,98218.33
2023-02-24T22:11:50.134Z,98215.82
2023-02-24T22:14:19.074Z,98212.42
2023-02-24T22:16:47.823Z,98205.67
2023-02-24T22:19:16.426Z,98203.37
2023-02-24T22:21:45.156Z,98201.56
2023-02-24T22:24:16.277Z,98197.84
2023-02-24T22:26:45.110Z,98198.12
2023-02-24T22:29:13.708Z,98195.16
2023-02-24T22:31:43.758Z,98196.36
2023-02-24T22:34:14.342Z,98193.58
2023-02-24T22:36:42.922Z,98205.98
2023-02-24T22:39:16.549Z,98197.23
2023-02-24T22:41:46.817Z,98198.33
2023-02-24T22:44:19.140Z,98196.28
2023-02-24T22:46:48.364Z,98191.41
2023-02-24T22:49:17.210Z,98195.43
2023-02-24T22:51:45.832Z,98200.19
2023-02-24T22:54:14.774Z,98195.60
2023-02-24T22:56:43.438Z,98195.61
2023-02-24T22:59:12.335Z,98203.94
2023-02-24T23:01:42.671Z,98191.98
2023-02-24T23:04:18.115Z,98195.08
2023-02-24T23:06:47.558Z,98195.77
2023-02-24T23:09:19.775Z,98194.39
2023-02-24T23:11:48.462Z,98193.10
2023-02-24T23:14:17.482Z,98196.58
2023-02-24T23:16:53.396Z,98201.05
2023-02-24T23:19:22.927Z,98199.42
2023-02-24T23:21:53.614Z,98200.11
2023-02-24T23:24:22.303Z,98191.31
2023-02-24T23:26:54.239Z,98194.00
2023-02-24T23:29:24.409Z,98193.70
2023-02-24T23:31:53.815Z,98188.73
2023-02-24T23:34:22.277Z,98188.05
2023-02-24T23:36:50.783Z,98180.91
2023-02-24T23:39:23.866Z,98176.34
2023-02-24T23:41:57.501Z,98174.06
2023-02-24T23:44:26.312Z,98169.59
2023-02-24T23:46:54.953Z,98165.48
2023-02-24T23:49:23.997Z,98169.67
2023-02-24T23:51:52.348Z,98164.88
2023-02-24T23:54:20.761Z,98160.54
2023-02-24T23:56:49.163Z,98162.86
2023-02-24T23:59:17.568Z,98166.28
